CheckWX is a tool to help pilots better visualize weather data.  It is not intended as a substitute for an official pre-flight weather briefing.

20:55:54 UTC

HELX TAF
Luxor International Airport
Luxor, Egypt
TAF HELX 161700Z 1618/1724 31012KT CAVOK

Jun-16@
18:00 UTC

Jun-16 @ 18:00 UTC

Jun-18@
00:00 UTC

Jun-18 @ 00:00 UTC

TAF HELX 161700Z 1618/1724 31012KT CAVOK
Wind
  • 310° at 12 KTS
Conditions
No significant weather
Cloud Levels
  • No significant clouds